Time;durP1;ratioP1;P1;durP2;ratioP2;P2;SDS_P1;SDS_P2;PMS_P1;PMS_P2;Temp;Humidity;BMP_temperature;BMP_pressure;BME280_temperature;BME280_humidity;BME280_pressure;Samples;Min_cycle;Max_cycle;Signal;HPM_P1;HPM_P2
2022/10/27 00:01:14;;;;;;;4.93;4.20;;;12.30;99.90;;;;;;5030600;28;20168;-72
2022/10/27 00:03:39;;;;;;;5.40;4.23;;;12.30;99.90;;;;;;5029856;28;20443;-71
2022/10/27 00:06:06;;;;;;;5.87;5.27;;;12.30;99.90;;;;;;5014708;28;20279;-71
2022/10/27 00:08:32;;;;;;;6.97;4.73;;;12.30;99.90;;;;;;5013312;28;20188;-71
2022/10/27 00:11:04;;;;;;;4.70;4.20;;;12.20;99.90;;;;;;5013270;28;20481;-71
2022/10/27 00:13:30;;;;;;;5.63;5.13;;;12.20;99.90;;;;;;5013303;28;20313;-71
2022/10/27 00:16:02;;;;;;;6.07;5.00;;;12.20;99.90;;;;;;5012751;28;20439;-70
2022/10/27 00:18:27;;;;;;;5.83;4.47;;;12.20;99.90;;;;;;5028100;28;20439;-70
2022/10/27 00:21:08;;;;;;;6.03;4.77;;;12.20;99.90;;;;;;5016687;28;20443;-71
2022/10/27 00:23:34;;;;;;;9.63;5.60;;;12.20;99.90;;;;;;5000755;28;20176;-70
2022/10/27 00:26:00;;;;;;;6.90;6.20;;;12.20;99.90;;;;;;5035586;23;20452;-69
2022/10/27 00:28:27;;;;;;;7.37;4.90;;;12.20;99.90;;;;;;5027437;28;20427;-67
2022/10/27 00:31:10;;;;;;;7.70;4.87;;;12.20;99.90;;;;;;5048610;28;20258;-69
2022/10/27 00:33:35;;;;;;;5.73;5.00;;;12.10;99.90;;;;;;5024853;28;20454;-69
2022/10/27 00:36:12;;;;;;;7.73;4.90;;;12.10;99.90;;;;;;5031277;28;20432;-69
2022/10/27 00:38:38;;;;;;;5.23;4.30;;;12.10;99.90;;;;;;5031926;28;20168;-69
2022/10/27 00:41:05;;;;;;;11.47;5.40;;;12.10;99.90;;;;;;5031674;28;20411;-69
2022/10/27 00:43:33;;;;;;;6.00;4.37;;;12.10;99.90;;;;;;5030242;28;20194;-68
2022/10/27 00:46:22;;;;;;;11.33;4.87;;;12.10;99.90;;;;;;5026089;28;20417;-69
2022/10/27 00:48:50;;;;;;;8.20;5.27;;;12.10;99.90;;;;;;5028040;28;20422;-70
2022/10/27 00:51:17;;;;;;;5.93;4.40;;;12.00;99.90;;;;;;5052589;28;20417;-70
2022/10/27 00:53:44;;;;;;;4.03;3.63;;;12.00;99.90;;;;;;5052445;28;20448;-69
2022/10/27 00:56:10;;;;;;;5.43;4.93;;;12.00;99.90;;;;;;5052093;28;20425;-70
2022/10/27 00:58:36;;;;;;;5.67;4.70;;;12.00;99.90;;;;;;5051970;28;20406;-69
2022/10/27 01:01:02;;;;;;;8.77;5.10;;;12.00;99.90;;;;;;5051258;28;20182;-69
2022/10/27 01:03:28;;;;;;;5.23;4.67;;;12.10;99.90;;;;;;5051056;28;20198;-69
2022/10/27 01:05:55;;;;;;;8.13;5.47;;;12.00;99.90;;;;;;5034784;28;20525;-70
2022/10/27 01:08:22;;;;;;;7.20;4.47;;;12.00;99.90;;;;;;5029923;28;20797;-69
2022/10/27 01:10:48;;;;;;;6.63;5.87;;;12.00;99.90;;;;;;5031202;28;20978;-68
2022/10/27 01:13:15;;;;;;;5.53;5.03;;;12.00;99.90;;;;;;5030892;28;20492;-68
2022/10/27 01:15:40;;;;;;;6.73;4.33;;;12.00;99.90;;;;;;5030901;28;20892;-69
2022/10/27 01:18:40;;;;;;;8.43;6.07;;;12.00;99.90;;;;;;5031060;28;20505;-69
2022/10/27 01:21:12;;;;;;;6.33;5.10;;;12.00;99.90;;;;;;5030633;28;20189;-69
2022/10/27 01:23:56;;;;;;;7.17;5.20;;;12.00;99.90;;;;;;5029702;28;20426;-69
2022/10/27 01:26:30;;;;;;;5.90;5.00;;;11.90;99.90;;;;;;5030623;28;20454;-69
2022/10/27 01:29:16;;;;;;;9.07;5.23;;;12.00;99.90;;;;;;5030616;28;20492;-69
2022/10/27 01:32:12;;;;;;;6.33;5.00;;;12.00;99.90;;;;;;5030854;28;20534;-68
2022/10/27 01:34:46;;;;;;;5.40;4.90;;;11.90;99.90;;;;;;5038060;28;20457;-69
2022/10/27 01:37:31;;;;;;;8.77;5.10;;;12.00;99.90;;;;;;5031817;28;20459;-69
2022/10/27 01:40:25;;;;;;;7.73;5.53;;;11.90;99.90;;;;;;5030867;28;20920;-68
2022/10/27 01:43:01;;;;;;;7.63;5.00;;;12.00;99.90;;;;;;5030944;28;20950;-68
2022/10/27 01:45:30;;;;;;;8.00;5.30;;;11.90;99.90;;;;;;5030797;28;20824;-69
2022/10/27 01:47:58;;;;;;;7.03;5.53;;;11.90;99.90;;;;;;5030482;28;20492;-69
2022/10/27 01:50:29;;;;;;;5.87;5.30;;;11.80;99.90;;;;;;5031508;28;20521;-69
2022/10/27 01:52:55;;;;;;;6.40;5.23;;;11.90;99.90;;;;;;5032278;28;20406;-69
2022/10/27 01:55:47;;;;;;;5.93;5.37;;;11.90;99.90;;;;;;5031870;28;20453;-68
2022/10/27 01:58:37;;;;;;;10.77;5.97;;;11.80;99.90;;;;;;5031336;28;20195;-69
2022/10/27 02:01:42;;;;;;;6.57;4.53;;;11.90;99.90;;;;;;5031454;28;20430;-69
2022/10/27 02:04:13;;;;;;;7.80;5.00;;;11.80;99.90;;;;;;5030459;28;20476;-69
2022/10/27 02:07:04;;;;;;;8.63;5.30;;;11.90;99.90;;;;;;5030320;28;20430;-69
2022/10/27 02:09:50;;;;;;;5.77;5.10;;;11.80;99.90;;;;;;5030493;28;20449;-70
2022/10/27 02:12:27;;;;;;;7.50;5.07;;;11.70;99.90;;;;;;5030246;28;20908;-69
2022/10/27 02:14:55;;;;;;;8.87;5.37;;;11.70;99.90;;;;;;5029762;28;20963;-69
2022/10/27 02:17:23;;;;;;;7.93;4.23;;;11.70;99.90;;;;;;5030258;28;20564;-69
2022/10/27 02:19:53;;;;;;;6.27;5.43;;;11.70;99.90;;;;;;5029952;28;20429;-69
2022/10/27 02:22:22;;;;;;;7.03;5.20;;;11.70;99.90;;;;;;5029855;28;20406;-69
2022/10/27 02:24:47;;;;;;;7.20;5.60;;;11.70;99.90;;;;;;5030656;28;20414;-69
2022/10/27 02:27:36;;;;;;;8.70;5.73;;;11.70;99.90;;;;;;5047220;28;20445;-69
2022/10/27 02:30:03;;;;;;;6.47;5.30;;;11.60;99.90;;;;;;5030999;28;20184;-69
2022/10/27 02:32:30;;;;;;;6.40;5.60;;;11.60;99.90;;;;;;5030948;28;20417;-69
2022/10/27 02:34:56;;;;;;;6.07;5.10;;;11.70;99.90;;;;;;5028698;28;20458;-70
2022/10/27 02:37:41;;;;;;;9.53;5.70;;;11.70;99.90;;;;;;5030274;28;20415;-68
2022/10/27 02:40:08;;;;;;;7.13;5.50;;;11.70;99.90;;;;;;5030125;28;20409;-69
2022/10/27 02:42:34;;;;;;;8.20;6.20;;;11.60;99.90;;;;;;5030953;28;20486;-70
2022/10/27 02:44:59;;;;;;;7.80;5.40;;;11.70;99.90;;;;;;5030552;28;20525;-69
2022/10/27 02:47:25;;;;;;;8.73;6.57;;;11.70;99.90;;;;;;5030264;28;20207;-69
2022/10/27 02:49:50;;;;;;;6.20;5.63;;;11.70;99.90;;;;;;5030227;28;20626;-70
2022/10/27 02:52:16;;;;;;;11.37;7.13;;;11.70;99.90;;;;;;5029971;28;20253;-69
2022/10/27 02:54:46;;;;;;;6.77;5.87;;;11.70;99.90;;;;;;5030288;28;20307;-68
2022/10/27 02:57:15;;;;;;;6.00;5.23;;;11.70;99.90;;;;;;5029474;28;20279;-68
2022/10/27 02:59:41;;;;;;;7.10;6.10;;;11.70;99.90;;;;;;5029983;28;20414;-68
2022/10/27 03:02:07;;;;;;;8.90;6.80;;;11.60;99.90;;;;;;5030102;28;20406;-69
2022/10/27 03:04:32;;;;;;;7.70;6.67;;;11.60;99.90;;;;;;5029652;28;20741;-69
2022/10/27 03:06:58;;;;;;;6.97;6.20;;;11.60;99.90;;;;;;5029545;28;20269;-68
2022/10/27 03:09:23;;;;;;;7.40;6.20;;;11.70;99.90;;;;;;5034389;28;20179;-70
2022/10/27 03:11:49;;;;;;;7.03;6.37;;;11.60;99.90;;;;;;5050152;28;20171;-68
2022/10/27 03:14:14;;;;;;;9.37;7.53;;;11.70;99.90;;;;;;5053454;28;20201;-69
2022/10/27 03:16:40;;;;;;;9.20;6.40;;;11.60;99.90;;;;;;5053119;28;20191;-69
2022/10/27 03:19:05;;;;;;;9.27;6.77;;;11.60;99.90;;;;;;5053153;28;20167;-69
2022/10/27 03:21:31;;;;;;;8.77;6.77;;;11.70;99.90;;;;;;5040938;28;20171;-68
2022/10/27 03:23:56;;;;;;;7.00;6.40;;;11.70;99.90;;;;;;5033534;28;20322;-69
2022/10/27 03:26:22;;;;;;;9.07;6.50;;;11.70;99.90;;;;;;5045611;28;20203;-69
2022/10/27 03:28:47;;;;;;;6.20;5.10;;;11.60;99.90;;;;;;5054469;28;20182;-70
2022/10/27 03:31:13;;;;;;;8.10;6.60;;;11.60;99.90;;;;;;5054199;28;20175;-69
2022/10/27 03:33:38;;;;;;;11.87;7.37;;;11.60;99.90;;;;;;5052547;28;20241;-68
2022/10/27 03:36:04;;;;;;;7.93;6.60;;;11.50;99.90;;;;;;5053662;28;20575;-69
2022/10/27 03:38:30;;;;;;;7.40;6.70;;;11.60;99.90;;;;;;5047105;28;20182;-70
2022/10/27 03:40:55;;;;;;;10.53;6.43;;;11.60;99.90;;;;;;5033979;28;20168;-69
2022/10/27 03:43:21;;;;;;;10.63;6.87;;;11.60;99.90;;;;;;5033904;28;20228;-70
2022/10/27 03:45:48;;;;;;;10.50;6.70;;;11.60;99.90;;;;;;5033584;28;20172;-70
2022/10/27 03:48:14;;;;;;;8.07;7.23;;;11.60;99.90;;;;;;5033354;28;20533;-69
2022/10/27 03:50:43;;;;;;;8.80;6.40;;;11.60;99.90;;;;;;5032942;28;20493;-69
2022/10/27 03:53:09;;;;;;;9.77;7.10;;;11.60;99.90;;;;;;5032826;28;20415;-69
2022/10/27 03:55:34;;;;;;;7.87;6.40;;;11.60;99.90;;;;;;5033639;28;20488;-69
2022/10/27 03:58:00;;;;;;;7.23;5.73;;;11.50;99.90;;;;;;5033546;28;20199;-70
2022/10/27 04:00:27;;;;;;;9.20;7.90;;;11.50;99.90;;;;;;5033590;28;20242;-69
2022/10/27 04:02:53;;;;;;;10.67;6.83;;;11.50;99.90;;;;;;5033860;28;20530;-70
2022/10/27 04:05:19;;;;;;;10.90;7.17;;;11.50;99.90;;;;;;5032513;28;20403;-69
2022/10/27 04:07:45;;;;;;;9.30;6.80;;;11.60;99.90;;;;;;5032351;28;20437;-69
2022/10/27 04:10:11;;;;;;;9.83;8.10;;;11.50;99.90;;;;;;5032242;28;20410;-69
2022/10/27 04:12:36;;;;;;;8.43;7.50;;;11.60;99.90;;;;;;5023982;28;20435;-69
2022/10/27 04:15:02;;;;;;;11.10;8.07;;;11.60;99.90;;;;;;5027296;28;20218;-68
2022/10/27 04:17:28;;;;;;;11.57;7.40;;;11.50;99.90;;;;;;5052175;28;20194;-68
2022/10/27 04:19:53;;;;;;;10.40;7.40;;;11.50;99.90;;;;;;5028428;28;20183;-68
2022/10/27 04:22:19;;;;;;;7.93;7.10;;;11.50;99.90;;;;;;5030662;28;20178;-68
2022/10/27 04:24:44;;;;;;;10.10;7.67;;;11.50;99.90;;;;;;5031127;28;20179;-68
2022/10/27 04:27:10;;;;;;;11.40;8.27;;;11.40;99.90;;;;;;5031531;28;20581;-68
2022/10/27 04:29:35;;;;;;;15.03;8.60;;;11.50;99.90;;;;;;5031775;28;20532;-68
2022/10/27 04:32:01;;;;;;;10.23;8.37;;;11.50;99.90;;;;;;5031380;28;20176;-69
2022/10/27 04:34:26;;;;;;;11.50;7.37;;;11.40;99.90;;;;;;5031520;28;20191;-69
2022/10/27 04:36:53;;;;;;;12.00;6.83;;;11.40;99.90;;;;;;5031525;28;20192;-69
2022/10/27 04:39:20;;;;;;;8.10;7.30;;;11.40;99.90;;;;;;5033411;28;20312;-69
2022/10/27 04:41:45;;;;;;;11.13;7.97;;;11.40;99.90;;;;;;5031672;28;20407;-68
2022/10/27 04:44:11;;;;;;;11.53;7.47;;;11.40;99.90;;;;;;5031561;28;20764;-68
2022/10/27 04:46:37;;;;;;;15.63;9.30;;;11.40;99.90;;;;;;5031180;28;20214;-69
2022/10/27 04:49:03;;;;;;;10.60;7.43;;;11.40;99.90;;;;;;5031371;28;20202;-69
2022/10/27 04:51:28;;;;;;;12.63;7.90;;;11.40;99.90;;;;;;5031635;28;20522;-68
2022/10/27 04:53:54;;;;;;;10.33;7.87;;;11.40;99.90;;;;;;5031609;28;20566;-69
2022/10/27 04:56:19;;;;;;;10.00;6.97;;;11.40;99.90;;;;;;5031159;28;20195;-69
2022/10/27 04:58:45;;;;;;;9.93;7.10;;;11.50;99.90;;;;;;5030927;28;20183;-68
2022/10/27 05:01:12;;;;;;;11.03;7.80;;;11.40;99.90;;;;;;5048729;28;20329;-68
2022/10/27 05:03:38;;;;;;;8.63;7.70;;;11.40;99.90;;;;;;5030857;28;20518;-68
2022/10/27 05:06:04;;;;;;;9.73;7.80;;;11.30;99.90;;;;;;5031250;28;20450;-69
2022/10/27 05:08:29;;;;;;;9.73;7.70;;;11.30;99.90;;;;;;5036670;28;20262;-69
2022/10/27 05:10:55;;;;;;;11.50;7.10;;;11.30;99.90;;;;;;5030487;28;20793;-68
2022/10/27 05:13:21;;;;;;;8.97;7.17;;;11.30;99.90;;;;;;5031494;28;20232;-69
2022/10/27 05:15:46;;;;;;;8.43;7.53;;;11.30;99.90;;;;;;5031130;28;20188;-69
2022/10/27 05:18:12;;;;;;;9.70;7.10;;;11.30;99.90;;;;;;5031704;28;20578;-68
2022/10/27 05:20:38;;;;;;;9.83;8.03;;;11.30;99.90;;;;;;5030886;28;20187;-68
2022/10/27 05:23:04;;;;;;;8.70;6.90;;;11.30;99.90;;;;;;5030579;28;20187;-68
2022/10/27 05:25:29;;;;;;;12.63;8.27;;;11.30;99.90;;;;;;5034634;28;20922;-69
2022/10/27 05:28:05;;;;;;;12.10;7.93;;;11.30;99.90;;;;;;5043520;28;20468;-68
2022/10/27 05:30:31;;;;;;;9.93;6.80;;;11.30;99.90;;;;;;5031042;28;20266;-68
2022/10/27 05:32:57;;;;;;;9.27;7.90;;;11.30;99.90;;;;;;5030532;28;20449;-68
2022/10/27 05:35:22;;;;;;;14.70;9.23;;;11.30;99.90;;;;;;5029567;28;20926;-68
2022/10/27 05:37:48;;;;;;;8.90;7.17;;;11.30;99.90;;;;;;5029317;28;20200;-69
2022/10/27 05:40:14;;;;;;;9.17;7.30;;;11.40;99.90;;;;;;5031247;28;20167;-70
2022/10/27 05:42:39;;;;;;;10.60;8.60;;;11.40;99.90;;;;;;5030440;28;20566;-70
2022/10/27 05:45:05;;;;;;;11.37;7.67;;;11.40;99.90;;;;;;5031803;28;20437;-67
2022/10/27 05:47:31;;;;;;;9.73;8.30;;;11.40;99.90;;;;;;5047117;28;20585;-68
2022/10/27 05:49:56;;;;;;;14.40;7.47;;;11.40;99.90;;;;;;5029762;28;20483;-69
2022/10/27 05:52:22;;;;;;;12.10;8.10;;;11.40;99.90;;;;;;5029977;28;20187;-69
2022/10/27 05:54:47;;;;;;;14.13;7.97;;;11.40;99.90;;;;;;5030375;28;20289;-68
2022/10/27 05:57:13;;;;;;;11.60;7.87;;;11.50;99.90;;;;;;5029797;28;20221;-68
2022/10/27 05:59:38;;;;;;;10.83;7.70;;;11.50;99.90;;;;;;5031385;28;20176;-68
2022/10/27 06:02:04;;;;;;;11.03;7.87;;;11.50;99.90;;;;;;5030584;28;20168;-69
2022/10/27 06:04:29;;;;;;;11.63;8.30;;;11.50;99.90;;;;;;5030900;28;20206;-68
2022/10/27 06:06:55;;;;;;;11.33;8.20;;;11.50;99.90;;;;;;5030791;28;20203;-69
2022/10/27 06:09:20;;;;;;;15.37;9.70;;;11.50;99.90;;;;;;5030137;28;20187;-69
2022/10/27 06:11:46;;;;;;;12.87;7.80;;;11.60;99.90;;;;;;5030251;28;20175;-69
2022/10/27 06:14:11;;;;;;;16.43;9.10;;;11.60;99.90;;;;;;5029926;28;20253;-68
2022/10/27 06:16:37;;;;;;;13.43;7.87;;;11.60;99.90;;;;;;5035289;28;20271;-68
2022/10/27 06:19:02;;;;;;;12.30;8.10;;;11.70;99.90;;;;;;5047756;28;20183;-70
2022/10/27 06:21:28;;;;;;;12.10;7.83;;;11.70;99.90;;;;;;5031173;28;20176;-68
2022/10/27 06:23:53;;;;;;;15.30;8.50;;;11.80;99.90;;;;;;5030101;28;20182;-68
2022/10/27 06:26:19;;;;;;;11.00;8.97;;;11.80;99.90;;;;;;5028574;28;20313;-68
2022/10/27 06:28:45;;;;;;;13.20;9.33;;;11.80;99.90;;;;;;5075720;22;20222;-68
2022/10/27 06:31:10;;;;;;;9.83;8.00;;;11.90;99.90;;;;;;5021387;28;20176;-69
2022/10/27 06:33:36;;;;;;;20.23;10.20;;;11.90;99.90;;;;;;5023391;28;20171;-69
2022/10/27 06:36:01;;;;;;;12.80;10.07;;;12.00;99.90;;;;;;5022485;28;20203;-68
2022/10/27 06:38:27;;;;;;;13.03;9.27;;;12.10;99.90;;;;;;5023090;28;20249;-69
2022/10/27 06:40:53;;;;;;;18.10;8.93;;;12.10;99.90;;;;;;5038846;28;20192;-69
2022/10/27 06:43:19;;;;;;;11.97;8.17;;;12.20;99.90;;;;;;5025887;28;20698;-69
2022/10/27 06:45:48;;;;;;;12.27;8.07;;;12.40;99.90;;;;;;5022906;28;20422;-69
2022/10/27 06:48:13;;;;;;;11.37;8.23;;;12.40;99.90;;;;;;5027130;28;20545;-68
2022/10/27 06:50:39;;;;;;;9.97;8.57;;;12.40;99.90;;;;;;5028840;28;20476;-69
2022/10/27 06:53:05;;;;;;;14.13;8.80;;;12.40;99.90;;;;;;5028752;28;20480;-70
2022/10/27 06:55:31;;;;;;;9.30;7.90;;;12.40;99.90;;;;;;5027844;28;20338;-69
2022/10/27 06:57:56;;;;;;;10.03;8.10;;;12.40;99.90;;;;;;5027773;28;20207;-69
2022/10/27 07:00:23;;;;;;;7.90;7.10;;;12.50;99.90;;;;;;5043309;28;20766;-69
2022/10/27 07:02:48;;;;;;;8.77;6.87;;;12.60;99.90;;;;;;5026223;28;20176;-68
2022/10/27 07:05:14;;;;;;;8.57;7.10;;;12.90;99.90;;;;;;5026003;28;20432;-69
2022/10/27 07:07:39;;;;;;;10.23;6.80;;;13.20;99.90;;;;;;5027515;28;20186;-68
2022/10/27 07:10:07;;;;;;;10.57;6.93;;;13.50;99.90;;;;;;5027233;28;20179;-69
2022/10/27 07:12:33;;;;;;;8.13;5.33;;;13.70;99.90;;;;;;5026752;28;20196;-69
2022/10/27 07:14:59;;;;;;;9.27;5.43;;;13.70;99.90;;;;;;5025839;28;20840;-70
2022/10/27 07:17:24;;;;;;;7.80;5.30;;;13.80;99.90;;;;;;5027148;28;20505;-70
2022/10/27 07:19:50;;;;;;;6.87;5.17;;;13.70;99.90;;;;;;5028334;28;20516;-68
2022/10/27 07:22:15;;;;;;;10.47;5.37;;;13.70;99.90;;;;;;5043932;28;20726;-68
2022/10/27 07:24:41;;;;;;;11.20;6.43;;;14.20;99.90;;;;;;5033368;28;20179;-69
2022/10/27 07:27:06;;;;;;;7.80;5.63;;;14.40;99.90;;;;;;5024670;28;20173;-69
2022/10/27 07:29:32;;;;;;;6.23;4.57;;;14.50;99.90;;;;;;5030665;28;20300;-68
2022/10/27 07:31:57;;;;;;;6.00;5.30;;;14.70;99.90;;;;;;5025506;28;20233;-70
2022/10/27 07:34:23;;;;;;;5.00;4.00;;;14.90;99.90;;;;;;5025312;28;20199;-69
2022/10/27 07:36:48;;;;;;;7.30;4.97;;;15.20;99.90;;;;;;5027160;28;20172;-68
2022/10/27 07:39:14;;;;;;;7.37;4.63;;;15.20;99.90;;;;;;5027386;28;20196;-68
2022/10/27 07:41:40;;;;;;;6.47;4.40;;;15.50;99.90;;;;;;5025728;28;20841;-69
2022/10/27 07:44:05;;;;;;;5.07;4.63;;;15.60;99.90;;;;;;5024857;28;20691;-70
2022/10/27 07:46:31;;;;;;;6.90;4.80;;;15.70;99.90;;;;;;5027049;28;20175;-68
2022/10/27 07:48:56;;;;;;;11.13;4.77;;;15.60;99.90;;;;;;5026591;28;20228;-70
2022/10/27 07:51:22;;;;;;;4.90;4.47;;;15.60;99.90;;;;;;5026136;28;20529;-70
2022/10/27 07:53:49;;;;;;;6.10;4.37;;;15.80;99.90;;;;;;5026123;28;20844;-71
2022/10/27 07:56:16;;;;;;;7.33;4.47;;;16.20;99.90;;;;;;5032521;28;20202;-69
2022/10/27 07:58:41;;;;;;;5.97;4.30;;;16.50;99.90;;;;;;5028190;28;20521;-69
2022/10/27 08:01:07;;;;;;;11.33;4.40;;;16.80;99.90;;;;;;5027243;28;20516;-73
2022/10/27 08:03:33;;;;;;;5.10;4.50;;;17.40;99.90;;;;;;5028042;28;20180;-71
2022/10/27 08:06:04;;;;;;;5.40;3.77;;;17.70;99.90;;;;;;5025421;28;20220;-68
2022/10/27 08:08:30;;;;;;;5.03;4.50;;;17.70;99.90;;;;;;5028841;28;20466;-70
2022/10/27 08:10:56;;;;;;;4.93;4.47;;;17.40;99.90;;;;;;5037068;28;20421;-72
2022/10/27 08:13:22;;;;;;;5.30;4.20;;;17.90;99.90;;;;;;5033960;28;20400;-72
2022/10/27 08:15:47;;;;;;;4.87;4.30;;;18.00;99.90;;;;;;5033357;28;20477;-73
2022/10/27 08:18:13;;;;;;;8.10;4.77;;;17.70;99.90;;;;;;5049226;28;20747;-68
2022/10/27 08:20:41;;;;;;;4.83;4.20;;;17.70;99.90;;;;;;5033974;28;20243;-69
2022/10/27 08:23:11;;;;;;;7.60;4.33;;;17.50;99.90;;;;;;5031887;28;20178;-69
2022/10/27 08:25:37;;;;;;;10.80;4.60;;;17.20;99.90;;;;;;5021392;28;20461;-69
2022/10/27 08:28:03;;;;;;;5.07;4.03;;;16.90;99.90;;;;;;5017671;28;20979;-69
2022/10/27 08:30:30;;;;;;;9.43;4.13;;;16.70;99.90;;;;;;5013893;28;20416;-70
2022/10/27 08:33:01;;;;;;;5.03;4.53;;;16.70;99.90;;;;;;5012905;28;20691;-70
2022/10/27 08:35:27;;;;;;;10.43;4.53;;;16.80;99.90;;;;;;5016365;28;20465;-70
2022/10/27 08:38:13;;;;;;;4.30;3.80;;;17.10;99.90;;;;;;5015806;28;20453;-68
2022/10/27 08:40:47;;;;;;;7.93;4.87;;;17.70;99.90;;;;;;5016249;28;20412;-69
2022/10/27 08:43:12;;;;;;;6.50;4.23;;;18.00;99.90;;;;;;5028416;28;20773;-69
2022/10/27 08:45:49;;;;;;;5.83;5.07;;;18.20;99.90;;;;;;5016171;28;20403;-68
2022/10/27 08:48:22;;;;;;;5.50;4.23;;;18.10;99.90;;;;;;5014234;28;20274;-69
2022/10/27 08:50:48;;;;;;;7.27;4.10;;;18.20;99.90;;;;;;5014617;28;20419;-69
2022/10/27 08:53:21;;;;;;;5.07;4.50;;;18.30;99.90;;;;;;5031859;28;20819;-70
2022/10/27 08:55:52;;;;;;;5.70;4.13;;;18.60;99.90;;;;;;5032682;28;20447;-70
2022/10/27 08:58:53;;;;;;;4.43;4.03;;;19.10;99.90;;;;;;5032798;28;20432;-69
2022/10/27 09:01:26;;;;;;;8.70;4.93;;;18.40;99.90;;;;;;4990947;28;20421;-70
2022/10/27 09:04:19;;;;;;;5.60;3.83;;;18.20;99.90;;;;;;5026010;28;20437;-70
2022/10/27 09:06:57;;;;;;;4.40;3.50;;;18.20;99.90;;;;;;5016561;28;20430;-70
2022/10/27 09:09:34;;;;;;;4.93;4.50;;;18.20;99.90;;;;;;5015992;28;20921;-70
2022/10/27 09:12:36;;;;;;;4.03;3.63;;;18.60;99.90;;;;;;5016303;28;20439;-70
2022/10/27 09:15:27;;;;;;;3.70;3.40;;;19.00;99.90;;;;;;5015980;28;20465;-72
2022/10/27 09:18:09;;;;;;;6.53;5.10;;;19.10;99.90;;;;;;5015385;28;20432;-69
2022/10/27 09:20:47;;;;;;;6.40;4.33;;;19.00;99.90;;;;;;5016302;28;20477;-70
2022/10/27 09:23:16;;;;;;;5.20;4.33;;;19.30;99.90;;;;;;5015356;28;20412;-69
2022/10/27 09:25:42;;;;;;;20.60;14.57;;;18.50;99.90;;;;;;5024382;28;20410;-71
2022/10/27 09:28:34;;;;;;;7.27;4.33;;;18.50;99.90;;;;;;5013031;28;20984;-74
2022/10/27 09:31:02;;;;;;;5.40;3.80;;;18.40;99.90;;;;;;5025465;28;21362;-73
2022/10/27 09:33:35;;;;;;;5.27;3.63;;;18.20;99.90;;;;;;5019019;28;20414;-71
2022/10/27 09:36:12;;;;;;;4.83;4.13;;;18.40;99.90;;;;;;5024154;28;20411;-72
2022/10/27 09:38:38;;;;;;;4.03;3.63;;;18.20;99.90;;;;;;5023287;28;21137;-71
2022/10/27 09:41:03;;;;;;;6.20;4.50;;;18.10;99.90;;;;;;5016989;28;20410;-71
2022/10/27 09:43:29;;;;;;;5.07;4.60;;;18.20;99.90;;;;;;5017121;28;20173;-71
2022/10/27 09:46:09;;;;;;;4.33;3.90;;;18.30;99.90;;;;;;5015175;28;20671;-71
2022/10/27 09:48:35;;;;;;;6.97;3.50;;;18.50;99.90;;;;;;5023337;28;20201;-72
2022/10/27 09:51:05;;;;;;;3.93;3.40;;;18.60;99.90;;;;;;5016615;28;20418;-71
2022/10/27 09:53:47;;;;;;;5.93;3.37;;;18.70;99.90;;;;;;5018756;28;20425;-73
2022/10/27 09:56:37;;;;;;;6.23;4.00;;;18.50;99.90;;;;;;5019284;28;20441;-71
2022/10/27 09:59:06;;;;;;;6.50;3.40;;;18.40;99.90;;;;;;5015433;28;20439;-73
2022/10/27 10:01:40;;;;;;;5.30;4.37;;;18.30;99.90;;;;;;5011966;28;20430;-73
2022/10/27 10:04:16;;;;;;;4.10;3.50;;;18.30;99.90;;;;;;5019265;28;20418;-72
2022/10/27 10:06:50;;;;;;;5.23;4.10;;;18.60;99.90;;;;;;5015592;28;20425;-73
2022/10/27 10:09:20;;;;;;;6.47;3.83;;;18.50;99.90;;;;;;5017575;28;20808;-72
2022/10/27 10:11:46;;;;;;;4.33;3.40;;;18.60;99.90;;;;;;5014500;28;20408;-72
2022/10/27 10:14:24;;;;;;;5.60;3.90;;;18.60;99.90;;;;;;5018888;28;20938;-71
2022/10/27 10:16:51;;;;;;;3.73;3.30;;;18.80;99.90;;;;;;5011461;28;20269;-71
2022/10/27 10:19:17;;;;;;;5.00;3.73;;;18.70;99.90;;;;;;5013508;28;20435;-71
2022/10/27 10:21:44;;;;;;;5.57;3.27;;;18.90;99.90;;;;;;5013377;28;20903;-73
2022/10/27 10:24:16;;;;;;;5.57;3.37;;;18.80;99.90;;;;;;5020962;28;20204;-71
2022/10/27 10:26:46;;;;;;;4.63;3.70;;;18.70;99.90;;;;;;5029085;28;20432;-74
2022/10/27 10:29:45;;;;;;;5.80;4.47;;;18.90;99.90;;;;;;5029750;28;20457;-71
2022/10/27 10:32:22;;;;;;;4.17;3.77;;;19.10;99.90;;;;;;5031509;28;20475;-71
2022/10/27 10:34:50;;;;;;;6.17;3.90;;;19.30;99.90;;;;;;5029936;28;20451;-71
2022/10/27 10:37:31;;;;;;;4.33;3.90;;;19.20;99.90;;;;;;5041121;28;21928;-72
2022/10/27 10:40:15;;;;;;;10.80;4.50;;;19.40;99.90;;;;;;5031292;28;20477;-71
2022/10/27 10:43:01;;;;;;;4.17;3.70;;;19.40;99.90;;;;;;5030179;28;20465;-71
2022/10/27 10:45:29;;;;;;;4.67;4.20;;;19.40;99.90;;;;;;5014228;28;20404;-71
2022/10/27 10:48:14;;;;;;;3.70;2.97;;;19.30;99.90;;;;;;5031242;28;20486;-72
2022/10/27 10:50:49;;;;;;;10.10;3.97;;;19.10;99.90;;;;;;5031541;28;20507;-72
2022/10/27 10:53:34;;;;;;;3.40;3.10;;;19.20;99.90;;;;;;5031009;28;20424;-71
2022/10/27 10:56:17;;;;;;;8.00;3.60;;;19.10;99.90;;;;;;5029723;28;20527;-72
2022/10/27 10:58:45;;;;;;;3.70;3.40;;;19.30;99.90;;;;;;5031904;28;20451;-71
2022/10/27 11:01:11;;;;;;;6.13;3.93;;;19.40;99.90;;;;;;5032472;28;20486;-71
2022/10/27 11:03:43;;;;;;;4.30;3.53;;;19.30;99.90;;;;;;5031128;28;20406;-71
2022/10/27 11:06:19;;;;;;;5.80;3.60;;;19.30;99.90;;;;;;5030993;28;20204;-71
2022/10/27 11:08:56;;;;;;;5.03;3.77;;;19.40;99.90;;;;;;5030935;28;20433;-71
2022/10/27 11:11:24;;;;;;;9.40;5.40;;;19.50;99.90;;;;;;5030784;28;20443;-72
2022/10/27 11:14:06;;;;;;;4.23;2.83;;;19.50;99.90;;;;;;5038478;28;20449;-73
2022/10/27 11:16:34;;;;;;;7.87;4.00;;;19.50;99.90;;;;;;5050941;28;20413;-72
2022/10/27 11:19:01;;;;;;;5.73;4.20;;;19.50;99.90;;;;;;5032181;28;20496;-71
2022/10/27 11:21:33;;;;;;;4.30;3.00;;;19.50;99.90;;;;;;5031068;28;20858;-71
2022/10/27 11:24:05;;;;;;;4.07;3.23;;;19.50;99.90;;;;;;5030920;28;20774;-72
2022/10/27 11:26:37;;;;;;;4.00;3.03;;;19.60;99.90;;;;;;5030753;28;20408;-72
2022/10/27 11:29:18;;;;;;;5.27;3.90;;;19.60;99.90;;;;;;5030718;28;20459;-72
2022/10/27 11:31:50;;;;;;;4.70;3.53;;;19.60;99.90;;;;;;5031056;28;20410;-71
2022/10/27 11:34:15;;;;;;;5.60;3.00;;;19.60;99.90;;;;;;5033093;28;21196;-71
2022/10/27 11:37:07;;;;;;;7.90;3.30;;;19.80;99.90;;;;;;5034378;28;20411;-72
2022/10/27 11:40:03;;;;;;;3.40;2.80;;;19.80;99.90;;;;;;5019744;28;20317;-73
2022/10/27 11:42:52;;;;;;;5.03;2.60;;;19.80;99.90;;;;;;5014831;28;20926;-74
2022/10/27 11:45:30;;;;;;;2.63;2.23;;;19.80;99.90;;;;;;5036244;28;20441;-70
2022/10/27 11:48:08;;;;;;;4.00;3.10;;;19.80;99.90;;;;;;5033733;28;20439;-69
2022/10/27 11:50:48;;;;;;;7.43;3.53;;;19.70;99.90;;;;;;5030151;28;20416;-67
2022/10/27 11:53:13;;;;;;;3.53;2.33;;;19.80;99.90;;;;;;5033773;28;20416;-68
2022/10/27 11:55:53;;;;;;;7.83;3.73;;;20.00;99.90;;;;;;5033431;28;20459;-68
2022/10/27 11:58:38;;;;;;;4.87;4.37;;;20.00;99.90;;;;;;5033614;28;20461;-69
2022/10/27 12:01:20;;;;;;;9.07;5.27;;;20.00;99.90;;;;;;5033638;28;20406;-69
2022/10/27 12:03:58;;;;;;;10.47;5.90;;;20.00;99.90;;;;;;5033639;28;20406;-68
2022/10/27 12:06:28;;;;;;;11.80;7.30;;;20.00;99.90;;;;;;5033644;28;20411;-68
2022/10/27 12:08:58;;;;;;;7.10;3.20;;;19.80;99.90;;;;;;5031530;28;20438;-67
2022/10/27 12:11:36;;;;;;;3.10;2.50;;;19.80;99.90;;;;;;5025332;28;20864;-68
2022/10/27 12:14:18;;;;;;;6.60;2.70;;;19.80;99.90;;;;;;5033426;28;20864;-68
2022/10/27 12:16:56;;;;;;;3.60;2.83;;;19.90;99.90;;;;;;5033283;28;20399;-67
2022/10/27 12:19:27;;;;;;;3.20;2.30;;;19.90;99.90;;;;;;5033181;28;20443;-68
2022/10/27 12:21:59;;;;;;;5.60;3.83;;;20.00;99.90;;;;;;5031986;28;20407;-69
2022/10/27 12:24:33;;;;;;;3.90;3.50;;;20.00;99.90;;;;;;5033223;28;20444;-68
2022/10/27 12:27:28;;;;;;;3.33;2.70;;;20.10;99.90;;;;;;5033096;28;20495;-67
2022/10/27 12:30:02;;;;;;;7.70;2.73;;;20.20;99.90;;;;;;5016376;28;20463;-68
2022/10/27 12:32:36;;;;;;;5.40;2.33;;;20.20;99.90;;;;;;5030473;28;20411;-69
2022/10/27 12:35:11;;;;;;;3.87;2.57;;;20.20;99.90;;;;;;5045552;28;20607;-68
2022/10/27 12:38:04;;;;;;;5.30;3.07;;;20.20;99.90;;;;;;5033047;28;20408;-68
2022/10/27 12:40:46;;;;;;;5.60;2.80;;;20.30;99.90;;;;;;5033002;28;20411;-70
2022/10/27 12:43:38;;;;;;;5.87;2.80;;;20.40;99.90;;;;;;5032335;28;20407;-71
2022/10/27 12:46:36;;;;;;;3.47;2.27;;;20.20;99.90;;;;;;5039310;28;20424;-69
2022/10/27 12:49:18;;;;;;;2.90;2.10;;;20.30;99.90;;;;;;5034314;28;20540;-68
2022/10/27 12:52:03;;;;;;;5.10;3.93;;;20.20;99.90;;;;;;5032495;28;20460;-69
2022/10/27 12:55:06;;;;;;;2.63;2.43;;;20.40;99.90;;;;;;5032586;28;20969;-69
2022/10/27 12:58:02;;;;;;;4.33;2.90;;;20.40;99.90;;;;;;5032499;28;20404;-70
2022/10/27 13:00:39;;;;;;;4.73;2.47;;;20.20;99.90;;;;;;5032747;28;20403;-70
2022/10/27 13:03:19;;;;;;;4.63;2.30;;;20.10;99.90;;;;;;5032314;28;20432;-68
2022/10/27 13:06:15;;;;;;;4.23;2.10;;;20.00;99.90;;;;;;5032819;28;20417;-69